Patriot — WDC2859 — position and weather

sailwx.info

Track history (hours):
 
Tides and Currents Weather Stations Pressure Air Temp Water Temp Dewpoint Dewpoint Depression Visibility Wind Speed Wind Dir Waves Ship Positions

Patriot

Owner: AMNAV Maritime Corporation, Oakland, CA. More information available from US FCC via Universal Licensing System and Coast Guard Vessel Documentation Center.

Last reported at 2015-Jul-06 09:31 UTC. Time now 2015-Jul-07 06:51 UTC.
Position N 38°04' W 122°14'.

Length 31 m; draft 4.6 m.

Type: Tug. MMSI: 366998680.

Date/timePositionNaut miles runAvg speedWind from/ knotsBaromVisibWave heightAir tempDewpointWater temp
2015-Jul-06 09:31N 38°04' W 122°14'1010.2
2015-Jul-06 08:33N 37°60' W 122°25'4 4.4
2015-Jul-06 07:33N 37°55' W 122°25'2 1.7
2015-Jul-06 06:33N 37°54' W 122°25'1 0.8
2015-Jul-06 05:33N 37°53' W 122°25'5 4.9
2015-Jul-06 04:33N 37°58' W 122°27'28 2.8
2015-Jul-05 18:31N 38°02' W 121°52'2 2.0
2015-Jul-05 17:33N 38°03' W 121°54'8 6.2
2015-Jul-05 16:12N 38°03' W 122°05'9 0.4
2015-Jul-04 20:13N 38°03' W 122°16'1 1.1
2015-Jul-04 19:30N 38°04' W 122°17'2 2.6
2015-Jul-04 18:33N 38°03' W 122°20'6 5.7
2015-Jul-04 17:33N 37°59' W 122°25'9 8.8
2015-Jul-04 16:33N 37°50' W 122°23'3 3.2
2015-Jul-04 15:33N 37°49' W 122°19'0 0.0
2015-Jul-04 14:33N 37°49' W 122°19'0 0.0
2015-Jul-04 13:33N 37°49' W 122°19'0 0.0
2015-Jul-04 12:33N 37°49' W 122°19'0 0.0
2015-Jul-04 11:33N 37°49' W 122°19'0 0.0
2015-Jul-04 10:33N 37°49' W 122°19'2 1.8
2015-Jul-04 09:33N 37°48' W 122°18'0 0.0
2015-Jul-04 08:33N 37°48' W 122°18'0 0.2
2015-Jul-04 07:33N 37°48' W 122°18'2 2.3
2015-Jul-04 06:33N 37°48' W 122°21'2 1.8
2015-Jul-04 05:33N 37°49' W 122°19'0 0.0
2015-Jul-04 04:33N 37°49' W 122°19'0 0.0
2015-Jul-04 01:19N 37°49' W 122°19'0 0.0
2015-Jul-04 00:33N 37°49' W 122°19'7 7.3
2015-Jul-03 23:33N 37°54' W 122°25'9 8.2
2015-Jul-03 22:29N 38°02' W 122°20'10 4.0
2015-Jul-03 20:08N 38°02' W 122°08'0 0.0
2015-Jul-03 05:22N 38°02' W 122°08'0 0.0
2015-Jul-02 21:31N 38°02' W 122°08'9 9.7
2015-Jul-02 20:33N 38°03' W 122°20'9 8.7
2015-Jul-02 19:33N 37°54' W 122°24'2 1.6
2015-Jul-02 18:33N 37°55' W 122°22'1 1.0
2015-Jul-02 17:33N 37°54' W 122°22'1 1.0
2015-Jul-02 16:33N 37°55' W 122°23'3 3.1
2015-Jul-02 15:33N 37°51' W 122°23'4 4.1
2015-Jul-02 14:33N 37°49' W 122°19'0 0.0
2015-Jul-02 13:33N 37°49' W 122°19'1 0.8
2015-Jul-02 12:33N 37°49' W 122°19'2 1.7
2015-Jul-02 11:33N 37°48' W 122°21'2 2.4
2015-Jul-02 10:33N 37°49' W 122°19'0 0.0
2015-Jul-02 09:33N 37°49' W 122°19'0 0.0
2015-Jul-02 08:33N 37°49' W 122°19'0 0.0
2015-Jul-02 07:33N 37°49' W 122°19'0 0.0
2015-Jul-02 06:33N 37°49' W 122°19'0 0.0
2015-Jul-02 05:33N 37°49' W 122°19'0 0.0
2015-Jul-02 04:33N 37°49' W 122°19'0 0.0
2015-Jul-02 03:33N 37°49' W 122°19'0 0.0
2015-Jul-02 02:33N 37°49' W 122°19'0 0.0
2015-Jul-02 01:33N 37°49' W 122°19'6 6.1
2015-Jul-02 00:33N 37°54' W 122°23'1 1.2
2015-Jul-01 23:33N 37°55' W 122°22'0 0.0
2015-Jul-01 22:33N 37°55' W 122°22'0 0.0
2015-Jul-01 21:33N 37°55' W 122°22'0 0.0
2015-Jul-01 20:33N 37°55' W 122°22'0 0.0
2015-Jul-01 19:33N 37°55' W 122°22'0 0.3
2015-Jul-01 18:33N 37°55' W 122°22'2 1.7
2015-Jul-01 17:33N 37°54' W 122°24'1 0.6
2015-Jul-01 16:33N 37°55' W 122°23'1 1.3
2015-Jul-01 15:33N 37°55' W 122°22'0 0.2
2015-Jul-01 14:33N 37°55' W 122°22'0 0.4
2015-Jul-01 13:33N 37°55' W 122°22'0 0.0
2015-Jul-01 12:33N 37°55' W 122°22'0 0.0
2015-Jul-01 11:33N 37°55' W 122°22'0 0.0
2015-Jul-01 10:33N 37°55' W 122°22'0 0.0
2015-Jul-01 09:33N 37°55' W 122°22'0 0.0
2015-Jul-01 08:33N 37°55' W 122°22'0 0.3
2015-Jul-01 07:33N 37°55' W 122°22'0 0.2
2015-Jul-01 06:33N 37°55' W 122°22'1 1.1
2015-Jul-01 05:33N 37°54' W 122°23'6 6.0
2015-Jul-01 04:33N 37°49' W 122°19'0 0.0
2015-Jul-01 03:34N 37°49' W 122°19'0 0.0
2015-Jul-01 02:33N 37°49' W 122°19'0 0.0
2015-Jul-01 01:34N 37°49' W 122°19'0 0.0
2015-Jul-01 00:34N 37°49' W 122°19'0 0.0
2015-Jun-30 23:33N 37°49' W 122°19'0 0.0
2015-Jun-30 22:33N 37°49' W 122°19'0 0.0
2015-Jun-30 21:33N 37°49' W 122°19'0 0.0
2015-Jun-30 20:34N 37°49' W 122°19'0 0.0
2015-Jun-30 19:33N 37°49' W 122°19'0 0.0
2015-Jun-30 18:33N 37°49' W 122°19'0 0.0
2015-Jun-30 17:33N 37°49' W 122°19'0 0.0
2015-Jun-30 16:33N 37°49' W 122°19'0 0.0
2015-Jun-30 15:33N 37°49' W 122°19'0 0.0
2015-Jun-30 14:33N 37°49' W 122°19'0 0.0
2015-Jun-30 13:33N 37°49' W 122°19'0 0.0
2015-Jun-30 12:33N 37°49' W 122°19'6 6.5
2015-Jun-30 11:34N 37°54' W 122°24'2 1.6
2015-Jun-30 10:33N 37°55' W 122°22'1 1.2
2015-Jun-30 09:33N 37°55' W 122°23'0 0.0
2015-Jun-30 08:33N 37°55' W 122°23'0 0.0
2015-Jun-30 07:34N 37°55' W 122°23'0 0.0
2015-Jun-30 06:33N 37°55' W 122°23'0 0.0
2015-Jun-30 05:34N 37°55' W 122°23'0 0.0
2015-Jun-30 04:33N 37°54' W 122°23'0 0.0
2015-Jun-30 03:33N 37°54' W 122°23'1 1.2
2015-Jun-30 02:34N 37°54' W 122°22'2 2.3
2015-Jun-30 01:33N 37°55' W 122°25'2 2.3
2015-Jun-30 00:33N 37°53' W 122°25'6 5.8
2015-Jun-29 23:33N 37°48' W 122°20'0 0.2
2015-Jun-29 22:33N 37°48' W 122°21'1 0.6
2015-Jun-29 21:33N 37°49' W 122°20'1 1.4
2015-Jun-29 20:33N 37°49' W 122°19'0 0.0
2015-Jun-29 19:33N 37°49' W 122°19'0 0.0
2015-Jun-29 18:33N 37°49' W 122°19'0 0.0
2015-Jun-29 17:34N 37°49' W 122°19'0 0.0
2015-Jun-29 16:33N 37°49' W 122°19'0 0.0
2015-Jun-29 15:34N 37°49' W 122°19'0 0.0
2015-Jun-29 14:34N 37°49' W 122°19'0 0.0
2015-Jun-29 13:33N 37°49' W 122°19'0 0.0
2015-Jun-29 12:34N 37°49' W 122°19'0 0.0
2015-Jun-29 11:33N 37°49' W 122°19'0 0.0
2015-Jun-29 10:34N 37°49' W 122°19'0 0.0
2015-Jun-29 09:34N 37°49' W 122°19'0 0.0
2015-Jun-29 08:33N 37°49' W 122°19'0 0.0
2015-Jun-29 07:33N 37°49' W 122°19'0 0.0
2015-Jun-29 06:34N 37°49' W 122°19'0 0.0
2015-Jun-29 05:33N 37°49' W 122°19'3 3.2
2015-Jun-29 04:33N 37°50' W 122°22'5 4.9
2015-Jun-29 03:33N 37°55' W 122°22'1 0.6
2015-Jun-29 02:33N 37°55' W 122°22'1 0.6
2015-Jun-29 01:33N 37°54' W 122°22'1 1.1
2015-Jun-29 00:33N 37°55' W 122°22'0 0.0
2015-Jun-28 23:33N 37°55' W 122°22'0 0.0
2015-Jun-28 22:33N 37°55' W 122°22'0 0.2
2015-Jun-28 21:33N 37°55' W 122°22'0 0.3
2015-Jun-28 20:33N 37°55' W 122°22'1 1.2
2015-Jun-28 19:33N 37°54' W 122°23'2 2.0
2015-Jun-28 18:33N 37°53' W 122°25'1 1.2
2015-Jun-28 17:33N 37°54' W 122°25'10 8.8
2015-Jun-28 16:28N 38°03' W 122°19'8 0.5
2015-Jun-28 01:29N 38°02' W 122°09'8 8.9
2015-Jun-28 00:33N 38°03' W 122°20'9 8.6
2015-Jun-27 23:34N 37°55' W 122°25'8 8.1
2015-Jun-27 22:33N 37°49' W 122°19'0 0.5
2015-Jun-27 21:34N 37°49' W 122°19'0 0.0
2015-Jun-27 20:34N 37°49' W 122°19'0 0.0
2015-Jun-27 19:34N 37°49' W 122°19'0 0.0
2015-Jun-27 18:34N 37°49' W 122°19'0 0.0
2015-Jun-27 17:33N 37°49' W 122°19'0 0.0
2015-Jun-27 16:33N 37°49' W 122°19'0 0.0
2015-Jun-27 15:34N 37°49' W 122°19'0 0.0
2015-Jun-27 14:33N 37°49' W 122°19'0 0.0
2015-Jun-27 13:34N 37°49' W 122°19'0 0.0
2015-Jun-27 12:33N 37°49' W 122°19'0 0.0
2015-Jun-27 11:34N 37°49' W 122°19'0 0.0
2015-Jun-27 10:34N 37°49' W 122°19'0 0.0
2015-Jun-27 09:33N 37°49' W 122°19'0 0.0
2015-Jun-27 08:34N 37°49' W 122°19'2 2.2
2015-Jun-27 07:33N 37°49' W 122°21'6 6.0
2015-Jun-27 06:33N 37°55' W 122°22'0 0.4
2015-Jun-27 05:33N 37°55' W 122°22'0 0.0
2015-Jun-27 04:33N 37°55' W 122°22'0 0.0
2015-Jun-27 03:33N 37°55' W 122°22'0 0.4
2015-Jun-27 02:33N 37°55' W 122°22'0 0.4
2015-Jun-27 01:33N 37°55' W 122°22'0 0.0
2015-Jun-27 00:33N 37°55' W 122°22'2 1.6
2015-Jun-26 23:33N 37°54' W 122°24'1 1.2
2015-Jun-26 22:33N 37°55' W 122°25'8 7.7
2015-Jun-26 21:33N 38°02' W 122°21'  
Track history (hours):
 
Tides and Currents Weather Stations Pressure Air Temp Water Temp Dewpoint Dewpoint Depression Visibility Wind Speed Wind Dir Waves Ship Positions

Patriot

Owner: AMNAV Maritime Corporation, Oakland, CA. More information available from US FCC via Universal Licensing System and Coast Guard Vessel Documentation Center.

Last reported at 2015-Jul-06 09:31 UTC. Time now 2015-Jul-07 06:51 UTC.
Position N 38°04' W 122°14'.

Length 31 m; draft 4.6 m.

Type: Tug. MMSI: 366998680.

Date/timePositionNaut miles runAvg speedWind from/ knotsBaromVisibWave heightAir tempDewpointWater temp
2015-Jul-06 09:31N 38°04' W 122°14'1010.2
2015-Jul-06 08:33N 37°60' W 122°25'4 4.4
2015-Jul-06 07:33N 37°55' W 122°25'2 1.7
2015-Jul-06 06:33N 37°54' W 122°25'1 0.8
2015-Jul-06 05:33N 37°53' W 122°25'5 4.9
2015-Jul-06 04:33N 37°58' W 122°27'28 2.8
2015-Jul-05 18:31N 38°02' W 121°52'2 2.0
2015-Jul-05 17:33N 38°03' W 121°54'8 6.2
2015-Jul-05 16:12N 38°03' W 122°05'9 0.4
2015-Jul-04 20:13N 38°03' W 122°16'1 1.1
2015-Jul-04 19:30N 38°04' W 122°17'2 2.6
2015-Jul-04 18:33N 38°03' W 122°20'6 5.7
2015-Jul-04 17:33N 37°59' W 122°25'9 8.8
2015-Jul-04 16:33N 37°50' W 122°23'3 3.2
2015-Jul-04 15:33N 37°49' W 122°19'0 0.0
2015-Jul-04 14:33N 37°49' W 122°19'0 0.0
2015-Jul-04 13:33N 37°49' W 122°19'0 0.0
2015-Jul-04 12:33N 37°49' W 122°19'0 0.0
2015-Jul-04 11:33N 37°49' W 122°19'0 0.0
2015-Jul-04 10:33N 37°49' W 122°19'2 1.8
2015-Jul-04 09:33N 37°48' W 122°18'0 0.0
2015-Jul-04 08:33N 37°48' W 122°18'0 0.2
2015-Jul-04 07:33N 37°48' W 122°18'2 2.3
2015-Jul-04 06:33N 37°48' W 122°21'2 1.8
2015-Jul-04 05:33N 37°49' W 122°19'0 0.0
2015-Jul-04 04:33N 37°49' W 122°19'0 0.0
2015-Jul-04 01:19N 37°49' W 122°19'0 0.0
2015-Jul-04 00:33N 37°49' W 122°19'7 7.3
2015-Jul-03 23:33N 37°54' W 122°25'9 8.2
2015-Jul-03 22:29N 38°02' W 122°20'10 4.0
2015-Jul-03 20:08N 38°02' W 122°08'0 0.0
2015-Jul-03 05:22N 38°02' W 122°08'0 0.0
2015-Jul-02 21:31N 38°02' W 122°08'9 9.7
2015-Jul-02 20:33N 38°03' W 122°20'9 8.7
2015-Jul-02 19:33N 37°54' W 122°24'2 1.6
2015-Jul-02 18:33N 37°55' W 122°22'1 1.0
2015-Jul-02 17:33N 37°54' W 122°22'1 1.0
2015-Jul-02 16:33N 37°55' W 122°23'3 3.1
2015-Jul-02 15:33N 37°51' W 122°23'4 4.1
2015-Jul-02 14:33N 37°49' W 122°19'0 0.0
2015-Jul-02 13:33N 37°49' W 122°19'1 0.8
2015-Jul-02 12:33N 37°49' W 122°19'2 1.7
2015-Jul-02 11:33N 37°48' W 122°21'2 2.4
2015-Jul-02 10:33N 37°49' W 122°19'0 0.0
2015-Jul-02 09:33N 37°49' W 122°19'0 0.0
2015-Jul-02 08:33N 37°49' W 122°19'0 0.0
2015-Jul-02 07:33N 37°49' W 122°19'0 0.0
2015-Jul-02 06:33N 37°49' W 122°19'0 0.0
2015-Jul-02 05:33N 37°49' W 122°19'0 0.0
2015-Jul-02 04:33N 37°49' W 122°19'0 0.0
2015-Jul-02 03:33N 37°49' W 122°19'0 0.0
2015-Jul-02 02:33N 37°49' W 122°19'0 0.0
2015-Jul-02 01:33N 37°49' W 122°19'6 6.1
2015-Jul-02 00:33N 37°54' W 122°23'1 1.2
2015-Jul-01 23:33N 37°55' W 122°22'0 0.0
2015-Jul-01 22:33N 37°55' W 122°22'0 0.0
2015-Jul-01 21:33N 37°55' W 122°22'0 0.0
2015-Jul-01 20:33N 37°55' W 122°22'0 0.0
2015-Jul-01 19:33N 37°55' W 122°22'0 0.3
2015-Jul-01 18:33N 37°55' W 122°22'2 1.7
2015-Jul-01 17:33N 37°54' W 122°24'1 0.6
2015-Jul-01 16:33N 37°55' W 122°23'1 1.3
2015-Jul-01 15:33N 37°55' W 122°22'0 0.2
2015-Jul-01 14:33N 37°55' W 122°22'0 0.4
2015-Jul-01 13:33N 37°55' W 122°22'0 0.0
2015-Jul-01 12:33N 37°55' W 122°22'0 0.0
2015-Jul-01 11:33N 37°55' W 122°22'0 0.0
2015-Jul-01 10:33N 37°55' W 122°22'0 0.0
2015-Jul-01 09:33N 37°55' W 122°22'0 0.0
2015-Jul-01 08:33N 37°55' W 122°22'0 0.3
2015-Jul-01 07:33N 37°55' W 122°22'0 0.2
2015-Jul-01 06:33N 37°55' W 122°22'1 1.1
2015-Jul-01 05:33N 37°54' W 122°23'6 6.0
2015-Jul-01 04:33N 37°49' W 122°19'0 0.0
2015-Jul-01 03:34N 37°49' W 122°19'0 0.0
2015-Jul-01 02:33N 37°49' W 122°19'0 0.0
2015-Jul-01 01:34N 37°49' W 122°19'0 0.0
2015-Jul-01 00:34N 37°49' W 122°19'0 0.0
2015-Jun-30 23:33N 37°49' W 122°19'0 0.0
2015-Jun-30 22:33N 37°49' W 122°19'0 0.0
2015-Jun-30 21:33N 37°49' W 122°19'0 0.0
2015-Jun-30 20:34N 37°49' W 122°19'0 0.0
2015-Jun-30 19:33N 37°49' W 122°19'0 0.0
2015-Jun-30 18:33N 37°49' W 122°19'0 0.0
2015-Jun-30 17:33N 37°49' W 122°19'0 0.0
2015-Jun-30 16:33N 37°49' W 122°19'0 0.0
2015-Jun-30 15:33N 37°49' W 122°19'0 0.0
2015-Jun-30 14:33N 37°49' W 122°19'0 0.0
2015-Jun-30 13:33N 37°49' W 122°19'0 0.0
2015-Jun-30 12:33N 37°49' W 122°19'6 6.5
2015-Jun-30 11:34N 37°54' W 122°24'2 1.6
2015-Jun-30 10:33N 37°55' W 122°22'1 1.2
2015-Jun-30 09:33N 37°55' W 122°23'0 0.0
2015-Jun-30 08:33N 37°55' W 122°23'0 0.0
2015-Jun-30 07:34N 37°55' W 122°23'0 0.0
2015-Jun-30 06:33N 37°55' W 122°23'0 0.0
2015-Jun-30 05:34N 37°55' W 122°23'0 0.0
2015-Jun-30 04:33N 37°54' W 122°23'0 0.0
2015-Jun-30 03:33N 37°54' W 122°23'1 1.2
2015-Jun-30 02:34N 37°54' W 122°22'2 2.3
2015-Jun-30 01:33N 37°55' W 122°25'2 2.3
2015-Jun-30 00:33N 37°53' W 122°25'6 5.8
2015-Jun-29 23:33N 37°48' W 122°20'0 0.2
2015-Jun-29 22:33N 37°48' W 122°21'1 0.6
2015-Jun-29 21:33N 37°49' W 122°20'1 1.4
2015-Jun-29 20:33N 37°49' W 122°19'0 0.0
2015-Jun-29 19:33N 37°49' W 122°19'0 0.0
2015-Jun-29 18:33N 37°49' W 122°19'0 0.0
2015-Jun-29 17:34N 37°49' W 122°19'0 0.0
2015-Jun-29 16:33N 37°49' W 122°19'0 0.0
2015-Jun-29 15:34N 37°49' W 122°19'0 0.0
2015-Jun-29 14:34N 37°49' W 122°19'0 0.0
2015-Jun-29 13:33N 37°49' W 122°19'0 0.0
2015-Jun-29 12:34N 37°49' W 122°19'0 0.0
2015-Jun-29 11:33N 37°49' W 122°19'0 0.0
2015-Jun-29 10:34N 37°49' W 122°19'0 0.0
2015-Jun-29 09:34N 37°49' W 122°19'0 0.0
2015-Jun-29 08:33N 37°49' W 122°19'0 0.0
2015-Jun-29 07:33N 37°49' W 122°19'0 0.0
2015-Jun-29 06:34N 37°49' W 122°19'0 0.0
2015-Jun-29 05:33N 37°49' W 122°19'3 3.2
2015-Jun-29 04:33N 37°50' W 122°22'5 4.9
2015-Jun-29 03:33N 37°55' W 122°22'1 0.6
2015-Jun-29 02:33N 37°55' W 122°22'1 0.6
2015-Jun-29 01:33N 37°54' W 122°22'1 1.1
2015-Jun-29 00:33N 37°55' W 122°22'0 0.0
2015-Jun-28 23:33N 37°55' W 122°22'0 0.0
2015-Jun-28 22:33N 37°55' W 122°22'0 0.2
2015-Jun-28 21:33N 37°55' W 122°22'0 0.3
2015-Jun-28 20:33N 37°55' W 122°22'1 1.2
2015-Jun-28 19:33N 37°54' W 122°23'2 2.0
2015-Jun-28 18:33N 37°53' W 122°25'1 1.2
2015-Jun-28 17:33N 37°54' W 122°25'10 8.8
2015-Jun-28 16:28N 38°03' W 122°19'8 0.5
2015-Jun-28 01:29N 38°02' W 122°09'8 8.9
2015-Jun-28 00:33N 38°03' W 122°20'9 8.6
2015-Jun-27 23:34N 37°55' W 122°25'8 8.1
2015-Jun-27 22:33N 37°49' W 122°19'0 0.5
2015-Jun-27 21:34N 37°49' W 122°19'0 0.0
2015-Jun-27 20:34N 37°49' W 122°19'0 0.0
2015-Jun-27 19:34N 37°49' W 122°19'0 0.0
2015-Jun-27 18:34N 37°49' W 122°19'0 0.0
2015-Jun-27 17:33N 37°49' W 122°19'0 0.0
2015-Jun-27 16:33N 37°49' W 122°19'0 0.0
2015-Jun-27 15:34N 37°49' W 122°19'0 0.0
2015-Jun-27 14:33N 37°49' W 122°19'0 0.0
2015-Jun-27 13:34N 37°49' W 122°19'0 0.0
2015-Jun-27 12:33N 37°49' W 122°19'0 0.0
2015-Jun-27 11:34N 37°49' W 122°19'0 0.0
2015-Jun-27 10:34N 37°49' W 122°19'0 0.0
2015-Jun-27 09:33N 37°49' W 122°19'0 0.0
2015-Jun-27 08:34N 37°49' W 122°19'2 2.2
2015-Jun-27 07:33N 37°49' W 122°21'6 6.0
2015-Jun-27 06:33N 37°55' W 122°22'0 0.4
2015-Jun-27 05:33N 37°55' W 122°22'0 0.0
2015-Jun-27 04:33N 37°55' W 122°22'0 0.0
2015-Jun-27 03:33N 37°55' W 122°22'0 0.4
2015-Jun-27 02:33N 37°55' W 122°22'0 0.4
2015-Jun-27 01:33N 37°55' W 122°22'0 0.0
2015-Jun-27 00:33N 37°55' W 122°22'2 1.6
2015-Jun-26 23:33N 37°54' W 122°24'1 1.2
2015-Jun-26 22:33N 37°55' W 122°25'8 7.7
2015-Jun-26 21:33N 38°02' W 122°21'  

Dump ship's entire track history